createdAt,value
2024-03-27T00:00:06.255Z,955.03
2024-03-27T00:00:36.547Z,955.03
2024-03-27T00:01:08.428Z,954.93
2024-03-27T00:01:39.512Z,954.93
2024-03-27T00:02:12.428Z,955.13
2024-03-27T00:02:43.606Z,955.03
2024-03-27T00:03:16.267Z,955.03
2024-03-27T00:03:47.481Z,954.93
2024-03-27T00:04:20.616Z,954.93
2024-03-27T00:04:51.596Z,954.93
2024-03-27T00:05:24.636Z,954.93
2024-03-27T00:05:55.581Z,955.23
2024-03-27T00:06:28.351Z,955.23
2024-03-27T00:06:59.725Z,955.03
2024-03-27T00:07:32.433Z,955.03
2024-03-27T00:08:03.569Z,954.93
2024-03-27T00:08:36.821Z,954.93
2024-03-27T00:09:07.698Z,954.82
2024-03-27T00:09:40.266Z,954.82
2024-03-27T00:10:12.144Z,954.93
2024-03-27T00:10:44.518Z,954.93
2024-03-27T00:11:15.528Z,954.93
2024-03-27T00:11:48.327Z,955.03
2024-03-27T00:12:19.704Z,955.03
2024-03-27T00:12:52.338Z,955.03
2024-03-27T00:13:23.595Z,955.03
2024-03-27T00:13:56.463Z,955.03
2024-03-27T00:14:27.665Z,955.03
2024-03-27T00:15:02.176Z,955.03
2024-03-27T00:15:31.954Z,955.03
2024-03-27T00:16:04.417Z,955.03
2024-03-27T00:16:35.611Z,955.03
2024-03-27T00:17:08.419Z,954.82
2024-03-27T00:17:39.698Z,954.82
2024-03-27T00:18:12.458Z,954.93
2024-03-27T00:18:43.546Z,954.93
2024-03-27T00:19:16.314Z,954.93
2024-03-27T00:19:47.704Z,954.82
2024-03-27T00:20:20.626Z,954.82
2024-03-27T00:20:51.730Z,954.93
2024-03-27T00:21:27.072Z,954.93
2024-03-27T00:21:55.568Z,955.03
2024-03-27T00:22:28.515Z,955.03
2024-03-27T00:22:59.624Z,954.93
2024-03-27T00:23:32.304Z,954.93
2024-03-27T00:24:03.654Z,954.82
2024-03-27T00:24:36.810Z,954.82
2024-03-27T00:25:08.103Z,954.93
2024-03-27T00:25:40.695Z,954.93
2024-03-27T00:26:11.724Z,955.03
2024-03-27T00:26:44.394Z,954.93
2024-03-27T00:27:15.513Z,954.93
2024-03-27T00:27:48.577Z,954.52
2024-03-27T00:28:19.673Z,954.52
2024-03-27T00:28:52.330Z,954.93
2024-03-27T00:29:23.567Z,954.93
2024-03-27T00:29:58.381Z,954.93
2024-03-27T00:30:29.051Z,954.93
2024-03-27T00:31:00.432Z,954.72
2024-03-27T00:31:31.758Z,954.72
2024-03-27T00:32:04.583Z,954.82
2024-03-27T00:32:35.587Z,954.82
2024-03-27T00:33:08.408Z,954.93
2024-03-27T00:33:39.631Z,954.93
2024-03-27T00:34:12.577Z,955.03
2024-03-27T00:34:43.584Z,955.13
2024-03-27T00:35:16.901Z,955.13
2024-03-27T00:35:47.677Z,955.03
2024-03-27T00:36:20.314Z,955.03
2024-03-27T00:36:51.807Z,955.13
2024-03-27T00:37:24.552Z,955.13
2024-03-27T00:37:55.704Z,954.82
2024-03-27T00:38:28.243Z,954.82
2024-03-27T00:38:59.601Z,954.93
2024-03-27T00:39:32.524Z,954.93
2024-03-27T00:40:04.069Z,954.93
2024-03-27T00:40:37.643Z,954.93
2024-03-27T00:41:07.671Z,955.13
2024-03-27T00:41:40.704Z,955.13
2024-03-27T00:42:11.726Z,955.03
2024-03-27T00:42:44.626Z,954.93
2024-03-27T00:43:15.693Z,954.93
2024-03-27T00:43:48.347Z,955.03
2024-03-27T00:44:19.613Z,955.03
2024-03-27T00:44:52.421Z,954.93
2024-03-27T00:45:25.011Z,954.93
2024-03-27T00:45:56.630Z,955.03
2024-03-27T00:46:27.620Z,955.03
2024-03-27T00:47:00.418Z,955.03
2024-03-27T00:47:31.615Z,955.03
2024-03-27T00:48:04.596Z,955.03
2024-03-27T00:48:35.719Z,955.03
2024-03-27T00:49:08.368Z,954.72
2024-03-27T00:49:39.576Z,954.72
2024-03-27T00:50:12.845Z,955.03
2024-03-27T00:50:43.664Z,954.82
2024-03-27T00:51:16.468Z,954.82
2024-03-27T00:51:47.684Z,954.72
2024-03-27T00:52:20.610Z,954.72
2024-03-27T00:52:51.483Z,955.03
2024-03-27T00:53:24.284Z,955.03
2024-03-27T00:53:55.701Z,954.82
2024-03-27T00:54:28.661Z,954.82
2024-03-27T00:54:59.552Z,954.93
2024-03-27T00:55:32.848Z,954.93
2024-03-27T00:56:03.685Z,954.62
2024-03-27T00:56:36.311Z,954.62
2024-03-27T00:57:07.640Z,954.72
2024-03-27T00:57:40.503Z,954.72
2024-03-27T00:58:11.660Z,955.13
2024-03-27T00:58:44.354Z,955.33
2024-03-27T00:59:15.659Z,955.33
2024-03-27T00:59:48.498Z,955.13
2024-03-27T01:00:21.395Z,955.13
2024-03-27T01:00:52.450Z,954.82
2024-03-27T01:01:23.660Z,954.82
2024-03-27T01:01:56.598Z,954.93
2024-03-27T01:02:27.677Z,954.93
2024-03-27T01:03:00.658Z,955.03
2024-03-27T01:03:31.824Z,955.03
2024-03-27T01:04:04.405Z,954.82
2024-03-27T01:04:35.609Z,954.82
2024-03-27T01:05:08.686Z,954.93
2024-03-27T01:05:39.950Z,954.93
2024-03-27T01:06:12.526Z,954.82
2024-03-27T01:06:43.651Z,954.82
2024-03-27T01:07:16.511Z,954.82
2024-03-27T01:07:47.590Z,954.72
2024-03-27T01:08:20.344Z,954.72
2024-03-27T01:08:51.658Z,954.72
2024-03-27T01:09:24.443Z,954.72
2024-03-27T01:09:55.644Z,954.72
2024-03-27T01:10:28.975Z,954.72
2024-03-27T01:10:59.691Z,954.72
2024-03-27T01:11:32.522Z,954.72
2024-03-27T01:12:03.651Z,954.82
2024-03-27T01:12:37.310Z,954.82
2024-03-27T01:13:07.687Z,954.82
2024-03-27T01:13:40.489Z,954.82
2024-03-27T01:14:11.650Z,954.93
2024-03-27T01:14:44.375Z,954.93
2024-03-27T01:15:16.773Z,954.93
2024-03-27T01:15:48.550Z,954.62
2024-03-27T01:16:19.709Z,954.62
2024-03-27T01:16:52.391Z,954.62
2024-03-27T01:17:23.584Z,954.62
2024-03-27T01:17:56.433Z,954.72
2024-03-27T01:18:27.663Z,954.72
2024-03-27T01:19:00.372Z,954.72
2024-03-27T01:19:31.645Z,954.72
2024-03-27T01:20:04.783Z,954.52
2024-03-27T01:20:35.562Z,954.52
2024-03-27T01:21:08.405Z,954.62
2024-03-27T01:21:39.673Z,954.62
2024-03-27T01:22:12.449Z,954.62
2024-03-27T01:22:43.623Z,954.62
2024-03-27T01:23:16.667Z,954.62
2024-03-27T01:23:47.675Z,954.62
2024-03-27T01:24:20.298Z,954.62
2024-03-27T01:24:51.600Z,954.62
2024-03-27T01:25:25.006Z,954.62
2024-03-27T01:25:55.563Z,954.52
2024-03-27T01:26:28.487Z,954.52
2024-03-27T01:26:59.663Z,954.62
2024-03-27T01:27:32.598Z,954.62
2024-03-27T01:28:03.648Z,954.62
2024-03-27T01:28:36.630Z,954.62
2024-03-27T01:29:07.695Z,954.52
2024-03-27T01:29:40.585Z,954.52
2024-03-27T01:30:12.981Z,954.52
2024-03-27T01:30:44.822Z,954.62
2024-03-27T01:31:15.650Z,954.62
2024-03-27T01:31:48.224Z,954.52
2024-03-27T01:32:19.597Z,954.52
2024-03-27T01:32:52.712Z,954.32
2024-03-27T01:33:23.740Z,954.32
2024-03-27T01:33:56.308Z,954.21
2024-03-27T01:34:27.630Z,954.21
2024-03-27T01:35:00.875Z,954.52
2024-03-27T01:35:31.627Z,954.52
2024-03-27T01:36:04.469Z,954.42
2024-03-27T01:36:35.645Z,954.42
2024-03-27T01:37:08.178Z,954.32
2024-03-27T01:37:39.623Z,954.32
2024-03-27T01:38:12.561Z,954.21
2024-03-27T01:38:43.748Z,954.32
2024-03-27T01:39:16.281Z,954.32
2024-03-27T01:39:47.705Z,954.11
2024-03-27T01:40:21.533Z,954.11
2024-03-27T01:40:51.594Z,954.11
2024-03-27T01:41:24.237Z,954.11
2024-03-27T01:41:55.698Z,954.32
2024-03-27T01:42:28.622Z,954.32
2024-03-27T01:42:59.554Z,954.01
2024-03-27T01:43:32.420Z,954.01
2024-03-27T01:44:03.681Z,954.21
2024-03-27T01:44:36.329Z,954.21
2024-03-27T01:45:09.106Z,954.01
2024-03-27T01:45:40.717Z,954.01
2024-03-27T01:46:11.785Z,953.91
2024-03-27T01:46:44.275Z,954.01
2024-03-27T01:47:15.642Z,954.01
2024-03-27T01:47:48.592Z,954.01
2024-03-27T01:48:19.642Z,954.01
2024-03-27T01:48:52.246Z,954.11
2024-03-27T01:49:23.709Z,954.11
2024-03-27T01:49:56.471Z,954.01
2024-03-27T01:50:27.919Z,954.01
2024-03-27T01:51:00.374Z,953.91
2024-03-27T01:51:31.735Z,953.91
2024-03-27T01:52:04.224Z,954.11
2024-03-27T01:52:35.647Z,954.11
2024-03-27T01:53:08.548Z,954.11
2024-03-27T01:53:39.853Z,954.11
2024-03-27T01:54:12.980Z,953.64
2024-03-27T01:54:43.643Z,954.01
2024-03-27T01:55:16.941Z,954.01
2024-03-27T01:55:47.586Z,953.81
2024-03-27T01:56:20.471Z,953.81
2024-03-27T01:56:51.667Z,953.91
2024-03-27T01:57:24.678Z,953.91
2024-03-27T01:57:55.590Z,953.81
2024-03-27T01:58:28.539Z,953.81
2024-03-27T01:58:59.672Z,953.91
2024-03-27T01:59:32.232Z,953.91
2024-03-27T02:00:05.645Z,953.81
2024-03-27T02:00:36.953Z,953.81
2024-03-27T02:01:07.542Z,953.81
2024-03-27T02:01:40.593Z,953.81
2024-03-27T02:02:11.704Z,953.71
2024-03-27T02:02:45.035Z,954.01
2024-03-27T02:03:15.613Z,954.01
2024-03-27T02:03:48.559Z,953.81
2024-03-27T02:04:19.710Z,953.81
2024-03-27T02:04:52.303Z,953.71
2024-03-27T02:05:24.018Z,953.71
2024-03-27T02:05:56.383Z,953.71
2024-03-27T02:06:27.674Z,953.71
2024-03-27T02:07:00.549Z,953.91
2024-03-27T02:07:31.737Z,953.91
2024-03-27T02:08:04.523Z,953.71
2024-03-27T02:08:35.616Z,953.71
2024-03-27T02:09:08.541Z,953.91
2024-03-27T02:09:39.748Z,953.91
2024-03-27T02:10:12.846Z,953.71
2024-03-27T02:10:43.719Z,953.71
2024-03-27T02:11:16.430Z,953.71
2024-03-27T02:11:47.772Z,953.64
2024-03-27T02:12:20.562Z,953.64
2024-03-27T02:12:51.603Z,953.64
2024-03-27T02:13:24.372Z,953.64
2024-03-27T02:13:55.795Z,953.33
2024-03-27T02:14:28.484Z,953.33
2024-03-27T02:14:59.678Z,953.71
2024-03-27T02:15:33.832Z,953.71
2024-03-27T02:16:03.629Z,953.44
2024-03-27T02:16:36.356Z,953.44
2024-03-27T02:17:16.193Z,953.44
2024-03-27T02:17:40.190Z,953.44
2024-03-27T02:18:11.676Z,953.33
2024-03-27T02:18:44.594Z,953.13
2024-03-27T02:19:15.752Z,953.13
2024-03-27T02:19:48.610Z,953.33
2024-03-27T02:20:20.090Z,953.33
2024-03-27T02:20:52.404Z,953.03
2024-03-27T02:21:23.575Z,953.03
2024-03-27T02:21:56.491Z,953.13
2024-03-27T02:22:27.679Z,953.13
2024-03-27T02:23:00.924Z,953.54
2024-03-27T02:23:31.680Z,953.54
2024-03-27T02:24:04.506Z,953.33
2024-03-27T02:24:35.758Z,953.33
2024-03-27T02:25:08.610Z,953.13
2024-03-27T02:25:39.643Z,953.13
2024-03-27T02:26:13.068Z,953.13
2024-03-27T02:26:43.784Z,953.23
2024-03-27T02:27:16.829Z,953.23
2024-03-27T02:27:47.688Z,953.33
2024-03-27T02:28:20.567Z,953.33
2024-03-27T02:28:51.593Z,953.23
2024-03-27T02:29:24.409Z,953.23
2024-03-27T02:29:55.817Z,953.23
2024-03-27T02:30:29.691Z,953.23
2024-03-27T02:30:59.742Z,953.03
2024-03-27T02:31:32.610Z,953.03
2024-03-27T02:32:03.763Z,952.93
2024-03-27T02:32:36.744Z,952.93
2024-03-27T02:33:07.639Z,953.13
2024-03-27T02:33:40.785Z,953.13
2024-03-27T02:34:11.781Z,953.03
2024-03-27T02:34:44.537Z,953.23
2024-03-27T02:35:16.037Z,953.23
2024-03-27T02:35:48.511Z,952.93
2024-03-27T02:36:19.576Z,952.93
2024-03-27T02:36:52.521Z,952.83
2024-03-27T02:37:23.763Z,952.83
2024-03-27T02:37:56.591Z,952.93
2024-03-27T02:38:27.723Z,952.93
2024-03-27T02:39:00.783Z,953.03
2024-03-27T02:39:31.795Z,953.03
2024-03-27T02:40:05.774Z,952.83
2024-03-27T02:40:35.679Z,952.83
2024-03-27T02:41:08.539Z,953.13
2024-03-27T02:41:39.820Z,953.13
2024-03-27T02:42:12.494Z,952.83
2024-03-27T02:42:43.729Z,952.83
2024-03-27T02:43:16.533Z,952.83
2024-03-27T02:43:47.648Z,953.03
2024-03-27T02:44:20.372Z,953.03
2024-03-27T02:44:51.724Z,952.83
2024-03-27T02:45:25.868Z,952.83
2024-03-27T02:45:55.811Z,952.93
2024-03-27T02:46:28.548Z,952.93
2024-03-27T02:46:59.698Z,953.03
2024-03-27T02:47:32.464Z,953.03
2024-03-27T02:48:03.649Z,952.83
2024-03-27T02:48:36.548Z,952.83
2024-03-27T02:49:07.576Z,953.03
2024-03-27T02:49:40.382Z,953.03
2024-03-27T02:50:12.087Z,952.72
2024-03-27T02:50:44.506Z,952.93
2024-03-27T02:51:15.632Z,952.93
2024-03-27T02:51:31.877Z,952.93
2024-03-27T02:52:03.697Z,952.72
2024-03-27T02:52:35.676Z,952.72
2024-03-27T02:53:07.788Z,952.72
2024-03-27T02:53:39.631Z,952.72
2024-03-27T02:54:12.420Z,952.72
2024-03-27T02:54:43.763Z,952.72
2024-03-27T02:55:16.877Z,952.72
2024-03-27T02:55:47.709Z,952.52
2024-03-27T02:56:03.878Z,952.52
2024-03-27T02:56:35.587Z,952.52
2024-03-27T02:57:07.673Z,952.83
2024-03-27T02:57:39.752Z,952.83
2024-03-27T02:58:11.767Z,952.72
2024-03-27T02:58:43.558Z,952.72
2024-03-27T02:59:15.691Z,952.72
2024-03-27T02:59:47.728Z,952.72
2024-03-27T03:00:21.054Z,952.72
2024-03-27T03:00:55.092Z,952.83
2024-03-27T03:01:23.672Z,952.83
2024-03-27T03:01:56.380Z,952.62
2024-03-27T03:02:27.733Z,952.62
2024-03-27T03:03:00.538Z,952.72
2024-03-27T03:03:31.903Z,952.72
2024-03-27T03:04:04.419Z,952.83
2024-03-27T03:04:35.693Z,952.83
2024-03-27T03:05:08.857Z,952.72
2024-03-27T03:05:39.811Z,952.72
2024-03-27T03:06:12.484Z,952.83
2024-03-27T03:06:43.620Z,952.42
2024-03-27T03:07:16.645Z,952.42
2024-03-27T03:07:47.605Z,952.72
2024-03-27T03:08:03.807Z,952.72
2024-03-27T03:08:35.531Z,952.72
2024-03-27T03:09:07.629Z,952.62
2024-03-27T03:09:40.450Z,952.62
2024-03-27T03:10:12.138Z,952.62
2024-03-27T03:10:44.706Z,952.72
2024-03-27T03:11:15.628Z,952.72
2024-03-27T03:11:48.556Z,952.83
2024-03-27T03:12:19.798Z,952.83
2024-03-27T03:12:52.536Z,952.93
2024-03-27T03:13:23.681Z,952.93
2024-03-27T03:13:56.492Z,952.83
2024-03-27T03:14:27.707Z,952.83
2024-03-27T03:15:02.146Z,952.83
2024-03-27T03:15:31.974Z,952.83
2024-03-27T03:16:04.629Z,952.83
2024-03-27T03:16:35.579Z,952.83
2024-03-27T03:17:08.528Z,952.72
2024-03-27T03:17:39.818Z,952.72
2024-03-27T03:18:12.412Z,952.93
2024-03-27T03:18:43.619Z,952.93
2024-03-27T03:19:16.488Z,952.93
2024-03-27T03:19:47.622Z,953.13
2024-03-27T03:20:20.668Z,953.13
2024-03-27T03:20:51.670Z,953.03
2024-03-27T03:21:24.350Z,953.03
2024-03-27T03:21:55.779Z,953.03
2024-03-27T03:22:28.422Z,953.03
2024-03-27T03:22:59.709Z,952.93
2024-03-27T03:23:32.318Z,952.93
2024-03-27T03:24:03.639Z,952.93
2024-03-27T03:24:36.820Z,952.93
2024-03-27T03:25:07.867Z,952.83
2024-03-27T03:25:40.467Z,952.83
2024-03-27T03:26:11.716Z,952.93
2024-03-27T03:26:44.508Z,952.83
2024-03-27T03:27:15.575Z,952.83
2024-03-27T03:27:48.555Z,952.93
2024-03-27T03:28:19.795Z,952.93
2024-03-27T03:28:52.501Z,953.03
2024-03-27T03:29:23.663Z,953.03
2024-03-27T03:29:56.526Z,952.83
2024-03-27T03:30:28.921Z,952.83
2024-03-27T03:31:00.427Z,953.13
2024-03-27T03:31:31.803Z,953.13
2024-03-27T03:32:04.490Z,952.93
2024-03-27T03:32:35.625Z,952.93
2024-03-27T03:33:08.318Z,952.83
2024-03-27T03:33:39.749Z,952.83
2024-03-27T03:34:12.538Z,952.93
2024-03-27T03:34:43.617Z,953.13
2024-03-27T03:35:16.776Z,953.13
2024-03-27T03:35:47.658Z,952.93
2024-03-27T03:36:20.455Z,952.93
2024-03-27T03:36:51.854Z,953.03
2024-03-27T03:37:24.688Z,953.03
2024-03-27T03:37:55.625Z,952.93
2024-03-27T03:38:28.391Z,952.93
2024-03-27T03:38:59.707Z,952.83
2024-03-27T03:39:32.514Z,952.83
2024-03-27T03:40:04.212Z,953.13
2024-03-27T03:40:36.413Z,953.13
2024-03-27T03:41:07.780Z,952.72
2024-03-27T03:41:40.438Z,952.72
2024-03-27T03:42:11.683Z,952.93
2024-03-27T03:42:44.580Z,952.93
2024-03-27T03:43:15.811Z,952.93
2024-03-27T03:43:48.528Z,952.93
2024-03-27T03:44:19.735Z,952.93
2024-03-27T03:44:52.584Z,953.23
2024-03-27T03:45:24.844Z,953.23
2024-03-27T03:45:56.660Z,952.93
2024-03-27T03:46:27.773Z,952.93
2024-03-27T03:47:01.441Z,953.03
2024-03-27T03:47:31.755Z,953.03
2024-03-27T03:48:04.514Z,953.03
2024-03-27T03:48:35.806Z,953.03
2024-03-27T03:49:08.385Z,952.93
2024-03-27T03:49:39.622Z,952.93
2024-03-27T03:50:12.951Z,953.03
2024-03-27T03:50:43.660Z,953.03
2024-03-27T03:51:16.426Z,953.03
2024-03-27T03:51:47.730Z,953.03
2024-03-27T03:52:20.830Z,953.03
2024-03-27T03:52:51.694Z,953.13
2024-03-27T03:53:24.783Z,953.13
2024-03-27T03:53:55.730Z,952.93
2024-03-27T03:54:28.370Z,952.93
2024-03-27T03:54:59.659Z,952.93
2024-03-27T03:55:32.919Z,952.93
2024-03-27T03:56:03.595Z,952.93
2024-03-27T03:56:36.712Z,952.93
2024-03-27T03:57:07.849Z,952.72
2024-03-27T03:57:40.661Z,952.72
2024-03-27T03:58:11.643Z,953.13
2024-03-27T03:58:44.463Z,952.93
2024-03-27T03:59:15.760Z,952.93
2024-03-27T03:59:48.481Z,953.03
2024-03-27T04:00:21.090Z,953.03
2024-03-27T04:00:52.495Z,953.03
2024-03-27T04:01:23.776Z,953.03
2024-03-27T04:01:56.386Z,952.93
2024-03-27T04:02:27.661Z,952.93
2024-03-27T04:03:00.653Z,953.03
2024-03-27T04:03:31.848Z,953.03
2024-03-27T04:04:04.346Z,953.03
2024-03-27T04:04:35.661Z,953.03
2024-03-27T04:05:08.829Z,952.93
2024-03-27T04:05:39.632Z,952.93
2024-03-27T04:06:12.403Z,953.03
2024-03-27T04:06:43.749Z,952.93
2024-03-27T04:07:16.375Z,952.93
2024-03-27T04:07:47.667Z,952.72
2024-03-27T04:08:20.363Z,952.72
2024-03-27T04:08:51.836Z,952.72
2024-03-27T04:09:24.282Z,952.72
2024-03-27T04:09:55.735Z,953.13
2024-03-27T04:10:28.876Z,953.13
2024-03-27T04:10:59.581Z,953.03
2024-03-27T04:11:32.471Z,953.03
2024-03-27T04:12:03.822Z,953.03
2024-03-27T04:12:38.756Z,953.03
2024-03-27T04:13:07.634Z,953.23
2024-03-27T04:13:40.378Z,953.23
2024-03-27T04:14:11.734Z,953.13
2024-03-27T04:14:44.380Z,952.93
2024-03-27T04:15:16.912Z,952.93
2024-03-27T04:15:48.969Z,953.03
2024-03-27T04:16:19.814Z,953.03
2024-03-27T04:16:52.618Z,952.93
2024-03-27T04:17:23.655Z,952.93
2024-03-27T04:17:56.648Z,953.03
2024-03-27T04:18:27.826Z,953.03
2024-03-27T04:19:01.012Z,952.83
2024-03-27T04:19:31.749Z,952.83
2024-03-27T04:20:05.045Z,952.83
2024-03-27T04:20:35.682Z,952.83
2024-03-27T04:21:08.580Z,952.83
2024-03-27T04:21:39.763Z,952.83
2024-03-27T04:22:12.421Z,952.83
2024-03-27T04:22:43.684Z,952.72
2024-03-27T04:23:16.472Z,952.72
2024-03-27T04:23:47.752Z,952.72
2024-03-27T04:24:20.362Z,952.72
2024-03-27T04:24:51.678Z,952.83
2024-03-27T04:25:24.771Z,952.83
2024-03-27T04:26:05.734Z,952.72
2024-03-27T04:26:28.455Z,952.72
2024-03-27T04:26:59.686Z,952.72
2024-03-27T04:27:32.610Z,952.72
2024-03-27T04:28:03.655Z,952.72
2024-03-27T04:28:36.378Z,952.72
2024-03-27T04:29:07.780Z,952.72
2024-03-27T04:29:40.244Z,952.72
2024-03-27T04:30:13.194Z,952.83
2024-03-27T04:30:44.545Z,952.72
2024-03-27T04:31:15.773Z,952.72
2024-03-27T04:31:48.439Z,952.42
2024-03-27T04:32:19.759Z,952.42
2024-03-27T04:32:52.673Z,952.62
2024-03-27T04:33:23.635Z,952.62
2024-03-27T04:33:56.436Z,952.62
2024-03-27T04:34:27.728Z,952.62
2024-03-27T04:35:01.116Z,952.62
2024-03-27T04:35:31.761Z,952.62
2024-03-27T04:36:04.717Z,952.62
2024-03-27T04:36:35.792Z,952.62
2024-03-27T04:37:08.500Z,952.52
2024-03-27T04:37:39.683Z,952.52
2024-03-27T04:38:12.534Z,952.62
2024-03-27T04:38:43.823Z,952.52
2024-03-27T04:39:16.319Z,952.52
2024-03-27T04:39:47.732Z,952.42
2024-03-27T04:40:20.940Z,952.42
2024-03-27T04:40:51.690Z,952.52
2024-03-27T04:41:24.406Z,952.52
2024-03-27T04:41:57.953Z,952.52
2024-03-27T04:42:28.848Z,952.52
2024-03-27T04:42:59.621Z,952.52
2024-03-27T04:43:32.418Z,952.52
2024-03-27T04:44:03.742Z,952.52
2024-03-27T04:44:36.497Z,952.52
2024-03-27T04:45:09.259Z,952.42
2024-03-27T04:45:40.781Z,952.42
2024-03-27T04:46:11.602Z,952.52
2024-03-27T04:46:44.488Z,952.62
2024-03-27T04:47:15.741Z,952.62
2024-03-27T04:47:48.515Z,952.42
2024-03-27T04:48:19.694Z,952.42
2024-03-27T04:48:52.477Z,952.22
2024-03-27T04:49:23.746Z,952.22
2024-03-27T04:49:56.297Z,952.22
2024-03-27T04:50:28.116Z,952.22
2024-03-27T04:51:00.630Z,952.22
2024-03-27T04:51:31.761Z,952.22
2024-03-27T04:52:04.417Z,952.22
2024-03-27T04:52:35.750Z,952.22
2024-03-27T04:53:08.562Z,952.42
2024-03-27T04:53:39.642Z,952.42
2024-03-27T04:54:12.467Z,952.12
2024-03-27T04:54:43.832Z,952.32
2024-03-27T04:55:16.779Z,952.32
2024-03-27T04:55:47.755Z,952.32
2024-03-27T04:56:20.621Z,952.32
2024-03-27T04:56:51.675Z,952.42
2024-03-27T04:57:24.563Z,952.42
2024-03-27T04:57:55.790Z,952.42
2024-03-27T04:58:28.609Z,952.42
2024-03-27T04:58:59.654Z,952.42
2024-03-27T04:59:32.588Z,952.42
2024-03-27T05:00:05.764Z,952.22
2024-03-27T05:00:36.952Z,952.22
2024-03-27T05:01:07.724Z,952.12
2024-03-27T05:01:40.622Z,952.12
2024-03-27T05:02:11.810Z,952.32
2024-03-27T05:02:44.544Z,951.91
2024-03-27T05:03:17.958Z,951.91
2024-03-27T05:03:48.654Z,952.52
2024-03-27T05:04:19.628Z,952.52
2024-03-27T05:04:52.390Z,952.42
2024-03-27T05:05:24.242Z,952.42
2024-03-27T05:05:56.512Z,952.12
2024-03-27T05:06:27.652Z,952.12
2024-03-27T05:07:01.265Z,952.12
2024-03-27T05:07:31.886Z,952.12
2024-03-27T05:08:04.850Z,952.12
2024-03-27T05:08:35.742Z,952.12
2024-03-27T05:09:08.951Z,952.32
2024-03-27T05:09:39.907Z,952.32
2024-03-27T05:10:13.207Z,952.22
2024-03-27T05:10:44.050Z,952.22
2024-03-27T05:11:18.858Z,952.22
2024-03-27T05:11:47.947Z,952.22
2024-03-27T05:12:20.965Z,952.22
2024-03-27T05:12:52.156Z,951.91
2024-03-27T05:13:24.672Z,951.91
2024-03-27T05:13:56.042Z,951.91
2024-03-27T05:14:28.786Z,951.91
2024-03-27T05:15:00.141Z,952.01
2024-03-27T05:15:34.617Z,952.01
2024-03-27T05:16:03.980Z,952.12
2024-03-27T05:16:37.279Z,952.12
2024-03-27T05:17:07.895Z,952.12
2024-03-27T05:17:40.899Z,952.12
2024-03-27T05:18:12.093Z,952.01
2024-03-27T05:18:45.219Z,952.01
2024-03-27T05:19:15.899Z,952.01
2024-03-27T05:19:49.033Z,951.91
2024-03-27T05:20:20.513Z,951.91
2024-03-27T05:20:52.964Z,952.01
2024-03-27T05:21:23.988Z,952.01
2024-03-27T05:21:56.926Z,952.12
2024-03-27T05:22:27.942Z,952.12
2024-03-27T05:23:00.953Z,952.12
2024-03-27T05:23:32.114Z,952.12
2024-03-27T05:24:04.839Z,951.91
2024-03-27T05:24:35.889Z,951.91
2024-03-27T05:25:09.147Z,951.91
2024-03-27T05:25:40.078Z,951.91
2024-03-27T05:26:12.677Z,952.01
2024-03-27T05:26:43.933Z,952.32
2024-03-27T05:27:16.951Z,952.32
2024-03-27T05:27:48.074Z,952.22
2024-03-27T05:28:20.535Z,952.22
2024-03-27T05:28:51.975Z,952.12
2024-03-27T05:29:24.674Z,952.12
2024-03-27T05:29:56.161Z,952.32
2024-03-27T05:30:30.216Z,952.32
2024-03-27T05:31:00.112Z,952.32
2024-03-27T05:31:32.903Z,952.32
2024-03-27T05:32:03.956Z,952.32
2024-03-27T05:32:36.905Z,952.32
2024-03-27T05:33:08.068Z,952.22
2024-03-27T05:33:40.586Z,952.22
2024-03-27T05:34:11.954Z,952.42
2024-03-27T05:34:44.613Z,952.22
2024-03-27T05:35:16.408Z,952.22
2024-03-27T05:35:48.641Z,952.32
2024-03-27T05:36:21.955Z,952.32
2024-03-27T05:36:52.819Z,952.32
2024-03-27T05:37:23.856Z,952.32
2024-03-27T05:37:56.830Z,952.12
2024-03-27T05:38:28.182Z,952.12
2024-03-27T05:39:00.753Z,952.01
2024-03-27T05:39:32.033Z,952.01
2024-03-27T05:40:05.820Z,952.32
2024-03-27T05:40:36.027Z,952.32
2024-03-27T05:41:08.641Z,952.22
2024-03-27T05:41:39.952Z,952.22
2024-03-27T05:42:12.796Z,952.12
2024-03-27T05:42:44.136Z,952.12
2024-03-27T05:43:16.616Z,952.12
2024-03-27T05:43:47.965Z,952.12
2024-03-27T05:44:20.904Z,952.12
2024-03-27T05:44:52.110Z,952.22
2024-03-27T05:45:26.194Z,952.22
2024-03-27T05:45:56.257Z,951.91
2024-03-27T05:46:28.954Z,951.91
2024-03-27T05:46:59.917Z,952.12
2024-03-27T05:47:33.037Z,952.12
2024-03-27T05:48:04.067Z,952.01
2024-03-27T05:48:36.856Z,952.01
2024-03-27T05:49:08.026Z,952.01
2024-03-27T05:49:40.820Z,952.01
2024-03-27T05:50:12.490Z,952.12
2024-03-27T05:50:44.719Z,952.12
2024-03-27T05:51:15.971Z,952.12
2024-03-27T05:51:48.765Z,952.01
2024-03-27T05:52:19.922Z,952.01
2024-03-27T05:52:52.670Z,952.01
2024-03-27T05:53:24.044Z,952.01
2024-03-27T05:53:56.750Z,951.81
2024-03-27T05:54:27.919Z,951.81
2024-03-27T05:55:01.284Z,951.81
2024-03-27T05:55:32.107Z,951.81
2024-03-27T05:56:04.700Z,952.12
2024-03-27T05:56:35.991Z,952.12
2024-03-27T05:57:08.860Z,952.01
2024-03-27T05:57:40.079Z,952.01
2024-03-27T05:58:12.702Z,952.01
2024-03-27T05:58:44.074Z,952.12
2024-03-27T05:59:16.960Z,952.12
2024-03-27T05:59:47.883Z,951.91
2024-03-27T06:00:22.749Z,951.91
2024-03-27T06:00:52.187Z,952.12
2024-03-27T06:01:24.810Z,952.12
2024-03-27T06:01:55.998Z,952.01
2024-03-27T06:02:29.165Z,952.01
2024-03-27T06:03:00.134Z,952.12
2024-03-27T06:03:32.785Z,952.12
2024-03-27T06:04:04.063Z,952.12
2024-03-27T06:04:37.041Z,952.12
2024-03-27T06:05:08.200Z,952.22
2024-03-27T06:05:40.989Z,952.22
2024-03-27T06:06:12.024Z,952.22
2024-03-27T06:06:44.824Z,952.22
2024-03-27T06:07:15.909Z,952.22
2024-03-27T06:07:49.171Z,952.12
2024-03-27T06:08:20.124Z,952.12
2024-03-27T06:08:52.796Z,952.22
2024-03-27T06:09:23.939Z,952.22
2024-03-27T06:09:56.853Z,952.32
2024-03-27T06:10:28.403Z,952.32
2024-03-27T06:11:00.789Z,952.22
2024-03-27T06:11:32.039Z,952.22
2024-03-27T06:12:04.982Z,952.32
2024-03-27T06:12:35.926Z,952.32
2024-03-27T06:13:08.879Z,952.01
2024-03-27T06:13:39.963Z,952.01
2024-03-27T06:14:12.800Z,952.42
2024-03-27T06:14:46.066Z,952.22
2024-03-27T06:15:17.904Z,952.22
2024-03-27T06:15:48.111Z,952.32
2024-03-27T06:16:20.685Z,952.32
2024-03-27T06:16:51.960Z,952.22
2024-03-27T06:17:24.824Z,952.22
2024-03-27T06:17:56.155Z,952.22
2024-03-27T06:18:28.523Z,952.22
2024-03-27T06:19:00.020Z,952.12
2024-03-27T06:19:33.014Z,952.12
2024-03-27T06:20:04.494Z,952.12
2024-03-27T06:20:37.116Z,952.12
2024-03-27T06:21:08.029Z,952.01
2024-03-27T06:21:40.899Z,952.01
2024-03-27T06:22:11.960Z,952.22
2024-03-27T06:22:45.150Z,952.12
2024-03-27T06:23:16.077Z,952.12
2024-03-27T06:23:48.876Z,952.01
2024-03-27T06:24:20.073Z,952.01
2024-03-27T06:24:52.909Z,952.12
2024-03-27T06:25:24.275Z,952.12
2024-03-27T06:25:56.857Z,952.12
2024-03-27T06:26:28.064Z,952.12
2024-03-27T06:27:01.173Z,952.01
2024-03-27T06:27:32.233Z,952.01
2024-03-27T06:28:05.099Z,952.12
2024-03-27T06:28:35.967Z,952.12
2024-03-27T06:29:09.312Z,952.22
2024-03-27T06:29:40.324Z,952.22
2024-03-27T06:30:14.934Z,952.01
2024-03-27T06:30:44.453Z,952.12
2024-03-27T06:31:17.542Z,952.12
2024-03-27T06:31:49.086Z,952.01
2024-03-27T06:32:20.968Z,952.01
2024-03-27T06:32:52.061Z,952.12
2024-03-27T06:33:24.881Z,952.12
2024-03-27T06:33:56.081Z,952.12
2024-03-27T06:34:28.751Z,952.12
2024-03-27T06:35:00.146Z,952.22
2024-03-27T06:35:33.201Z,952.22
2024-03-27T06:36:04.034Z,952.32
2024-03-27T06:36:37.946Z,952.32
2024-03-27T06:37:08.140Z,952.42
2024-03-27T06:37:41.250Z,952.42
2024-03-27T06:38:12.050Z,952.32